createdAt,value
2023-03-10T00:01:46.066Z,0
2023-03-10T00:06:48.313Z,0
2023-03-10T00:11:52.545Z,0
2023-03-10T00:16:56.671Z,0
2023-03-10T00:22:00.852Z,0
2023-03-10T00:27:04.947Z,0
2023-03-10T00:32:09.218Z,0
2023-03-10T00:37:13.295Z,0
2023-03-10T00:42:17.474Z,0
2023-03-10T00:47:21.678Z,0
2023-03-10T00:52:25.757Z,0
2023-03-10T00:57:29.955Z,0
2023-03-10T01:02:34.112Z,0
2023-03-10T01:07:38.255Z,0
2023-03-10T01:12:42.428Z,0
2023-03-10T01:17:46.604Z,0
2023-03-10T01:22:50.766Z,0
2023-03-10T01:27:54.895Z,0
2023-03-10T01:32:59.091Z,0
2023-03-10T01:38:03.226Z,0
2023-03-10T01:43:07.539Z,0
2023-03-10T01:48:11.540Z,0
2023-03-10T01:53:13.818Z,0
2023-03-10T01:58:18.012Z,0
2023-03-10T02:03:22.182Z,0
2023-03-10T02:08:26.312Z,0
2023-03-10T02:13:28.590Z,0
2023-03-10T02:18:32.758Z,0
2023-03-10T02:23:38.479Z,0
2023-03-10T02:28:41.095Z,0
2023-03-10T02:33:45.246Z,0
2023-03-10T02:38:49.397Z,0
2023-03-10T02:43:53.594Z,0
2023-03-10T02:48:57.718Z,0
2023-03-10T02:54:01.882Z,0
2023-03-10T02:59:06.058Z,0
2023-03-10T03:04:10.256Z,0
2023-03-10T03:09:14.357Z,0
2023-03-10T03:14:19.577Z,0
2023-03-10T03:19:22.708Z,0
2023-03-10T03:24:26.859Z,0
2023-03-10T03:29:31.000Z,0
2023-03-10T03:34:35.178Z,0
2023-03-10T03:39:39.431Z,0
2023-03-10T03:44:43.510Z,0
2023-03-10T03:49:47.645Z,0
2023-03-10T03:54:51.855Z,0
2023-03-10T03:59:54.128Z,0
2023-03-10T04:04:58.233Z,0
2023-03-10T04:10:00.603Z,0
2023-03-10T04:15:04.657Z,0
2023-03-10T04:20:08.977Z,0
2023-03-10T04:25:13.020Z,0
2023-03-10T04:30:17.164Z,0
2023-03-10T04:35:21.326Z,0
2023-03-10T04:40:25.522Z,0
2023-03-10T04:45:29.645Z,0
2023-03-10T04:50:33.835Z,0
2023-03-10T04:55:38.007Z,0
2023-03-10T05:05:46.317Z,0
2023-03-10T05:10:50.473Z,0
2023-03-10T05:15:54.655Z,0
2023-03-10T05:20:58.811Z,0
2023-03-10T05:26:02.935Z,0
2023-03-10T05:31:07.143Z,0
2023-03-10T05:36:11.343Z,0
2023-03-10T05:41:13.773Z,3
2023-03-10T05:46:17.728Z,10
2023-03-10T05:51:21.898Z,26
2023-03-10T05:56:26.065Z,54
2023-03-10T06:01:28.290Z,83
2023-03-10T06:06:32.481Z,150
2023-03-10T06:11:34.749Z,250
2023-03-10T06:16:38.977Z,332
2023-03-10T06:21:43.076Z,420
2023-03-10T06:26:47.217Z,576
2023-03-10T06:31:51.431Z,668
2023-03-10T06:36:55.564Z,960
2023-03-10T06:41:59.898Z,1063
2023-03-10T06:47:03.881Z,1140
2023-03-10T06:52:08.063Z,1028
2023-03-10T06:57:12.213Z,1694
2023-03-10T07:02:16.359Z,1543
2023-03-10T07:07:20.511Z,1890
2023-03-10T07:12:24.652Z,1280
2023-03-10T07:17:28.846Z,1416
2023-03-10T07:22:32.990Z,1953
2023-03-10T07:27:37.143Z,1574
2023-03-10T07:32:41.457Z,1627
2023-03-10T07:37:45.502Z,2807
2023-03-10T07:42:49.641Z,4054
2023-03-10T07:47:53.832Z,3351
2023-03-10T07:52:57.982Z,3967
2023-03-10T07:58:02.163Z,3128
2023-03-10T08:03:04.426Z,2763
2023-03-10T08:08:08.545Z,4201
2023-03-10T08:13:10.850Z,3769
2023-03-10T08:18:14.994Z,3638
2023-03-10T08:23:19.164Z,4395
2023-03-10T08:28:23.364Z,6635
2023-03-10T08:33:27.478Z,5115
2023-03-10T08:38:31.640Z,5480
2023-03-10T08:43:35.797Z,5153
2023-03-10T08:48:42.644Z,6141
2023-03-10T08:53:44.155Z,6520
2023-03-10T08:58:48.306Z,6733
2023-03-10T09:03:52.473Z,7457
2023-03-10T09:08:56.659Z,7603
2023-03-10T09:14:00.935Z,5522
2023-03-10T09:19:04.938Z,5280
2023-03-10T09:24:09.102Z,6564
2023-03-10T09:29:13.265Z,5768
2023-03-10T09:34:17.438Z,5354
2023-03-10T09:39:21.569Z,7154
2023-03-10T09:44:25.785Z,7306
2023-03-10T09:49:29.910Z,6826
2023-03-10T09:54:34.068Z,8296
2023-03-10T09:59:36.436Z,8188
2023-03-10T10:04:40.623Z,7367
2023-03-10T10:09:44.693Z,6390
2023-03-10T10:14:56.661Z,6072
2023-03-10T10:19:51.060Z,6090
2023-03-10T10:24:55.261Z,4586
2023-03-10T10:29:59.428Z,4920
2023-03-10T10:35:03.561Z,8015
2023-03-10T10:40:09.347Z,9199
2023-03-10T10:45:11.871Z,8815
2023-03-10T10:50:17.902Z,9908
2023-03-10T10:55:20.194Z,10396
2023-03-10T11:00:24.362Z,9160
2023-03-10T11:05:28.530Z,9420
2023-03-10T11:10:32.721Z,10363
2023-03-10T11:15:36.978Z,13025
2023-03-10T11:20:41.001Z,10723
2023-03-10T11:25:45.193Z,11053
2023-03-10T11:30:49.372Z,10123
2023-03-10T11:35:53.530Z,10176
2023-03-10T11:40:57.639Z,5650
2023-03-10T11:46:01.840Z,5929
2023-03-10T11:51:05.973Z,9735
2023-03-10T11:56:10.148Z,3730
2023-03-10T12:01:12.397Z,3545
2023-03-10T12:06:16.565Z,3886
2023-03-10T12:11:18.865Z,5320
2023-03-10T12:16:23.152Z,3137
2023-03-10T12:21:27.245Z,7022
2023-03-10T12:26:31.341Z,6901
2023-03-10T12:31:35.625Z,5158
2023-03-10T12:36:39.650Z,3433
2023-03-10T12:41:43.780Z,3258
2023-03-10T12:46:48.109Z,4050
2023-03-10T12:51:52.103Z,4495
2023-03-10T12:56:56.264Z,7362
2023-03-10T13:02:00.494Z,10726
2023-03-10T13:07:04.637Z,11989
2023-03-10T13:12:09.022Z,9371
2023-03-10T13:17:12.921Z,7765
2023-03-10T13:22:17.122Z,7709
2023-03-10T13:27:22.489Z,5318
2023-03-10T13:32:25.511Z,3123
2023-03-10T13:37:29.610Z,2137
2023-03-10T13:42:43.450Z,2918
2023-03-10T13:47:37.876Z,5590
2023-03-10T13:52:42.082Z,5095
2023-03-10T13:57:44.448Z,4685
2023-03-10T14:02:48.502Z,4298
2023-03-10T14:07:52.669Z,4972
2023-03-10T14:12:54.941Z,1796
2023-03-10T14:17:59.061Z,3967
2023-03-10T14:23:03.295Z,4578
2023-03-10T14:28:07.396Z,2585
2023-03-10T14:33:11.623Z,1097
2023-03-10T14:38:15.719Z,1600
2023-03-10T14:43:19.899Z,1888
2023-03-10T14:48:24.049Z,1272
2023-03-10T14:53:28.202Z,640
2023-03-10T14:58:32.380Z,1178
2023-03-10T15:03:36.539Z,1420
2023-03-10T15:08:40.699Z,3763
2023-03-10T15:13:44.885Z,3096
2023-03-10T15:18:49.008Z,1581
2023-03-10T15:23:53.202Z,894
2023-03-10T15:28:57.320Z,825
2023-03-10T15:34:01.529Z,739
2023-03-10T15:39:05.664Z,1167
2023-03-10T15:44:09.799Z,1123
2023-03-10T15:49:13.997Z,904
2023-03-10T15:54:18.155Z,2000
2023-03-10T15:59:20.425Z,1957
2023-03-10T16:04:24.669Z,1565
2023-03-10T16:09:26.862Z,621
2023-03-10T16:14:31.080Z,434
2023-03-10T16:19:35.184Z,360
2023-03-10T16:24:39.329Z,345
2023-03-10T16:29:43.528Z,384
2023-03-10T16:34:47.676Z,281
2023-03-10T16:39:51.804Z,214
2023-03-10T16:44:56.013Z,191
2023-03-10T16:50:00.194Z,430
2023-03-10T16:55:04.316Z,303
2023-03-10T17:00:08.488Z,227
2023-03-10T17:05:15.073Z,133
2023-03-10T17:10:16.799Z,141
2023-03-10T17:15:20.972Z,72
2023-03-10T17:20:25.142Z,62
2023-03-10T17:25:29.318Z,53
2023-03-10T17:30:33.448Z,20
2023-03-10T17:35:37.677Z,10
2023-03-10T17:40:41.822Z,7
2023-03-10T17:45:45.969Z,2
2023-03-10T17:50:50.145Z,0
2023-03-10T17:55:52.380Z,0
2023-03-10T18:00:56.531Z,0
2023-03-10T18:05:58.847Z,0
2023-03-10T18:11:03.000Z,0
2023-03-10T18:16:07.251Z,0
2023-03-10T18:21:11.349Z,0
2023-03-10T18:26:15.488Z,0
2023-03-10T18:31:21.722Z,0
2023-03-10T18:36:23.867Z,0
2023-03-10T18:41:27.982Z,0
2023-03-10T18:46:32.217Z,0
2023-03-10T18:51:36.316Z,0
2023-03-10T18:56:40.506Z,0
2023-03-10T19:01:44.675Z,0
2023-03-10T19:06:48.809Z,0
2023-03-10T19:11:53.099Z,0
2023-03-10T19:16:57.126Z,0
2023-03-10T19:22:01.351Z,0
2023-03-10T19:27:05.485Z,0
2023-03-10T19:32:09.648Z,0
2023-03-10T19:37:13.840Z,0
2023-03-10T19:42:17.972Z,0
2023-03-10T19:47:22.137Z,0
2023-03-10T19:52:24.468Z,0
2023-03-10T19:57:28.597Z,0
2023-03-10T20:02:32.783Z,0
2023-03-10T20:07:35.023Z,0
2023-03-10T20:12:39.172Z,0
2023-03-10T20:17:43.357Z,0
2023-03-10T20:22:47.502Z,0
2023-03-10T20:27:51.706Z,0
2023-03-10T20:32:55.898Z,0
2023-03-10T20:37:59.989Z,0
2023-03-10T20:43:04.211Z,0
2023-03-10T20:48:08.318Z,0
2023-03-10T20:53:12.528Z,0
2023-03-10T20:58:16.687Z,0
2023-03-10T21:03:20.839Z,0
2023-03-10T21:08:25.017Z,0
2023-03-10T21:13:29.180Z,0
2023-03-10T21:18:33.333Z,0
2023-03-10T21:23:37.506Z,0
2023-03-10T21:28:41.708Z,0
2023-03-10T21:33:45.837Z,0
2023-03-10T21:38:50.082Z,0
2023-03-10T21:43:54.200Z,0
2023-03-10T21:48:58.346Z,0
2023-03-10T21:54:00.726Z,0
2023-03-10T21:59:04.803Z,0
2023-03-10T22:04:07.077Z,0
2023-03-10T22:09:11.226Z,0
2023-03-10T22:19:19.524Z,0
2023-03-10T22:24:23.693Z,0
2023-03-10T22:29:27.906Z,0
2023-03-10T22:34:32.022Z,0
2023-03-10T22:39:34.326Z,0
2023-03-10T22:44:38.483Z,0
2023-03-10T22:49:42.624Z,0
2023-03-10T22:54:46.780Z,0
2023-03-10T22:59:50.983Z,0
2023-03-10T23:04:55.152Z,0
2023-03-10T23:09:59.342Z,0
2023-03-10T23:15:09.362Z,0
2023-03-10T23:20:07.654Z,0
2023-03-10T23:25:12.322Z,0
2023-03-10T23:30:16.095Z,0
2023-03-10T23:35:20.134Z,0
2023-03-10T23:40:24.330Z,0
2023-03-10T23:45:28.485Z,0
2023-03-10T23:50:32.622Z,0
2023-03-10T23:55:34.894Z,0
